RYR22F1 EGSS-EPBY
Flight info
| Callsign | RYR22F1 |
|---|---|
| Flight time | 1h 40m |
| Altitude | 35000 |
| Route | CLN P44 RATLO M197 REDFA L620 PAM DCT HLZ DCT GILAS M994 DENKO N858 DEKUT Z96 LUXUD |
| Aircraft | B38M/M-SDE1FGHILORVWXY/HB1 |
Departure
| Time | 2026-05-05 18:41 |
|---|---|
| Airport | London Stansted Airport (EGSS) |
Arrival
| Time | 2026-05-05 20:21 |
|---|---|
| Airport | Ignacy Jan Paderewski Bydgoszcz Airport (EPBY) |
| Time | Latitude | Longitude | Altitude | Speed | Heading |
|---|---|---|---|---|---|
| 2026-05-05 18:05 | 51.88947 | 0.25219 | 357 ft | 0 kts | 43° |
| 2026-05-05 18:33 | 51.88905 | 0.25156 | 351 ft | 18 kts | 43° |
| 2026-05-05 18:33 | 51.88884 | 0.25108 | 350 ft | 0 kts | 133° |
| 2026-05-05 18:35 | 51.88886 | 0.25104 | 351 ft | 0 kts | 313° |
| 2026-05-05 18:37 | 51.88895 | 0.25089 | 353 ft | 5 kts | 314° |
| 2026-05-05 18:37 | 51.88942 | 0.25005 | 354 ft | 15 kts | 304° |
| 2026-05-05 18:37 | 51.88882 | 0.24830 | 349 ft | 24 kts | 223° |
| 2026-05-05 18:37 | 51.88743 | 0.24623 | 352 ft | 28 kts | 222° |
| 2026-05-05 18:38 | 51.88596 | 0.24402 | 352 ft | 29 kts | 223° |
| 2026-05-05 18:38 | 51.88445 | 0.24175 | 353 ft | 30 kts | 223° |
| 2026-05-05 18:38 | 51.88289 | 0.23940 | 348 ft | 31 kts | 222° |
| 2026-05-05 18:38 | 51.88127 | 0.23695 | 347 ft | 32 kts | 223° |
| 2026-05-05 18:39 | 51.87958 | 0.23444 | 348 ft | 34 kts | 223° |
| 2026-05-05 18:39 | 51.87787 | 0.23184 | 348 ft | 34 kts | 223° |
| 2026-05-05 18:39 | 51.87747 | 0.23004 | 353 ft | 11 kts | 309° |
| 2026-05-05 18:39 | 51.87801 | 0.22909 | 348 ft | 13 kts | 311° |
| 2026-05-05 18:40 | 51.87890 | 0.22753 | 352 ft | 25 kts | 313° |
| 2026-05-05 18:40 | 51.87965 | 0.22669 | 350 ft | 13 kts | 15° |
| 2026-05-05 18:40 | 51.88064 | 0.22821 | 341 ft | 41 kts | 44° |
| 2026-05-05 18:40 | 51.88475 | 0.23440 | 347 ft | 118 kts | 43° |
| 2026-05-05 18:41 | 51.88949 | 0.24144 | 355 ft | 158 kts | 41° |
| 2026-05-05 18:41 | 51.90080 | 0.25913 | 1185 ft | 180 kts | 44° |
| 2026-05-05 18:41 | 51.90972 | 0.27312 | 2183 ft | 175 kts | 47° |
| 2026-05-05 18:41 | 51.91660 | 0.29063 | 2632 ft | 198 kts | 69° |
| 2026-05-05 18:42 | 51.91845 | 0.31324 | 2491 ft | 214 kts | 96° |
| 2026-05-05 18:42 | 51.91228 | 0.33578 | 2595 ft | 229 kts | 122° |
| 2026-05-05 18:42 | 51.90641 | 0.35088 | 2849 ft | 240 kts | 116° |
| 2026-05-05 18:42 | 51.89899 | 0.37555 | 3221 ft | 254 kts | 113° |
| 2026-05-05 18:43 | 51.89123 | 0.40201 | 3742 ft | 262 kts | 113° |
| 2026-05-05 18:43 | 51.88337 | 0.42878 | 3915 ft | 265 kts | 113° |
| 2026-05-05 18:43 | 51.87546 | 0.45575 | 3976 ft | 265 kts | 113° |
| 2026-05-05 18:43 | 51.86752 | 0.48283 | 3999 ft | 266 kts | 113° |
| 2026-05-05 18:44 | 51.85961 | 0.50978 | 4018 ft | 264 kts | 113° |
| 2026-05-05 18:44 | 51.85168 | 0.53681 | 4509 ft | 276 kts | 113° |
| 2026-05-05 18:44 | 51.84321 | 0.56561 | 5044 ft | 286 kts | 113° |
| 2026-05-05 18:44 | 51.83460 | 0.59511 | 5613 ft | 293 kts | 111° |
| 2026-05-05 18:45 | 51.83017 | 0.62700 | 6178 ft | 292 kts | 88° |
| 2026-05-05 18:45 | 51.83101 | 0.66002 | 6741 ft | 296 kts | 85° |
| 2026-05-05 18:45 | 51.83195 | 0.69257 | 6995 ft | 283 kts | 85° |
| 2026-05-05 18:45 | 51.83299 | 0.72401 | 6846 ft | 276 kts | 85° |
| 2026-05-05 18:46 | 51.83407 | 0.75489 | 6549 ft | 275 kts | 84° |
| 2026-05-05 18:46 | 51.83519 | 0.78560 | 6280 ft | 273 kts | 84° |
| 2026-05-05 18:46 | 51.83633 | 0.81612 | 6009 ft | 270 kts | 84° |
| 2026-05-05 18:46 | 51.83746 | 0.84635 | 5950 ft | 270 kts | 84° |
| 2026-05-05 18:47 | 51.83859 | 0.87640 | 5952 ft | 272 kts | 84° |
| 2026-05-05 18:47 | 51.83973 | 0.90690 | 5951 ft | 272 kts | 84° |
| 2026-05-05 18:47 | 51.84087 | 0.93747 | 5954 ft | 272 kts | 84° |
| 2026-05-05 18:47 | 51.84200 | 0.96804 | 5951 ft | 272 kts | 84° |
| 2026-05-05 18:48 | 51.84312 | 0.99857 | 5949 ft | 272 kts | 84° |
| 2026-05-05 18:48 | 51.84423 | 1.02904 | 5951 ft | 272 kts | 84° |
| 2026-05-05 18:48 | 51.84533 | 1.05957 | 5947 ft | 272 kts | 84° |
| 2026-05-05 18:48 | 51.84643 | 1.09006 | 5952 ft | 272 kts | 84° |
| 2026-05-05 18:49 | 51.84752 | 1.12057 | 5950 ft | 272 kts | 84° |
| 2026-05-05 18:49 | 51.84978 | 1.15083 | 6103 ft | 271 kts | 69° |
| 2026-05-05 18:49 | 51.85730 | 1.17831 | 7052 ft | 267 kts | 64° |
| 2026-05-05 18:49 | 51.86471 | 1.20647 | 7900 ft | 276 kts | 64° |
| 2026-05-05 18:50 | 51.87229 | 1.23515 | 8851 ft | 279 kts | 65° |
| 2026-05-05 18:50 | 51.87997 | 1.26401 | 9731 ft | 285 kts | 65° |
| 2026-05-05 18:50 | 51.88796 | 1.29387 | 10450 ft | 296 kts | 65° |
| 2026-05-05 18:50 | 51.89644 | 1.32546 | 10878 ft | 315 kts | 65° |
| 2026-05-05 18:51 | 51.90535 | 1.35871 | 11428 ft | 329 kts | 65° |
| 2026-05-05 18:51 | 51.91461 | 1.39327 | 12052 ft | 339 kts | 66° |
| 2026-05-05 18:51 | 51.92402 | 1.42849 | 12857 ft | 343 kts | 66° |
| 2026-05-05 18:51 | 51.93358 | 1.46425 | 13615 ft | 348 kts | 66° |
| 2026-05-05 18:52 | 51.94323 | 1.50046 | 14319 ft | 352 kts | 66° |
| 2026-05-05 18:52 | 51.95300 | 1.53713 | 15031 ft | 355 kts | 66° |
| 2026-05-05 18:52 | 51.96279 | 1.57397 | 15733 ft | 358 kts | 66° |
| 2026-05-05 18:52 | 51.97269 | 1.61123 | 16428 ft | 361 kts | 66° |
| 2026-05-05 18:53 | 51.98264 | 1.64880 | 17110 ft | 363 kts | 66° |
| 2026-05-05 18:53 | 51.99211 | 1.68634 | 17752 ft | 366 kts | 73° |
| 2026-05-05 18:53 | 51.99837 | 1.72653 | 18382 ft | 369 kts | 76° |
| 2026-05-05 18:53 | 52.00472 | 1.76713 | 18905 ft | 373 kts | 76° |
| 2026-05-05 18:54 | 52.01111 | 1.80814 | 19441 ft | 376 kts | 76° |
| 2026-05-05 18:54 | 52.01752 | 1.84943 | 19968 ft | 379 kts | 76° |
| 2026-05-05 18:54 | 52.02400 | 1.89128 | 20477 ft | 383 kts | 76° |
| 2026-05-05 18:54 | 52.03051 | 1.93343 | 20980 ft | 387 kts | 76° |
| 2026-05-05 18:55 | 52.03708 | 1.97604 | 21485 ft | 390 kts | 76° |
| 2026-05-05 18:55 | 52.04367 | 2.01896 | 21973 ft | 394 kts | 76° |
| 2026-05-05 18:55 | 52.05032 | 2.06237 | 22452 ft | 398 kts | 76° |
| 2026-05-05 18:55 | 52.05703 | 2.10623 | 22933 ft | 401 kts | 76° |
| 2026-05-05 18:56 | 52.06376 | 2.15041 | 23394 ft | 405 kts | 76° |
| 2026-05-05 18:56 | 52.07055 | 2.19513 | 23795 ft | 409 kts | 77° |
| 2026-05-05 18:56 | 52.07737 | 2.24015 | 24199 ft | 411 kts | 77° |
| 2026-05-05 18:56 | 52.08414 | 2.28492 | 24579 ft | 414 kts | 77° |
| 2026-05-05 18:57 | 52.09103 | 2.33068 | 24965 ft | 417 kts | 78° |
| 2026-05-05 18:57 | 52.09793 | 2.37655 | 25363 ft | 419 kts | 78° |
| 2026-05-05 18:57 | 52.10489 | 2.42298 | 25755 ft | 422 kts | 78° |
| 2026-05-05 18:57 | 52.11186 | 2.46955 | 26140 ft | 424 kts | 78° |
| 2026-05-05 18:58 | 52.12038 | 2.51562 | 26511 ft | 427 kts | 73° |
| 2026-05-05 18:58 | 52.12941 | 2.56181 | 26882 ft | 429 kts | 74° |
| 2026-05-05 18:58 | 52.13822 | 2.60779 | 27235 ft | 432 kts | 75° |
| 2026-05-05 18:58 | 52.14713 | 2.65477 | 27591 ft | 434 kts | 75° |
| 2026-05-05 18:59 | 52.15600 | 2.70179 | 27933 ft | 436 kts | 75° |
| 2026-05-05 18:59 | 52.16493 | 2.74924 | 28276 ft | 439 kts | 75° |
| 2026-05-05 18:59 | 52.17387 | 2.79694 | 28617 ft | 441 kts | 75° |
| 2026-05-05 18:59 | 52.18283 | 2.84484 | 28943 ft | 444 kts | 75° |
| 2026-05-05 19:00 | 52.19184 | 2.89315 | 29272 ft | 446 kts | 75° |
| 2026-05-05 19:00 | 52.20087 | 2.94167 | 29583 ft | 448 kts | 75° |
| 2026-05-05 19:00 | 52.20991 | 2.99039 | 29897 ft | 450 kts | 76° |
| 2026-05-05 19:00 | 52.21890 | 3.03893 | 30162 ft | 453 kts | 76° |
| 2026-05-05 19:01 | 52.22800 | 3.08820 | 30442 ft | 455 kts | 76° |
| 2026-05-05 19:01 | 52.23711 | 3.13766 | 30706 ft | 456 kts | 76° |
| 2026-05-05 19:01 | 52.24622 | 3.18728 | 30959 ft | 458 kts | 76° |
| 2026-05-05 19:01 | 52.25539 | 3.23714 | 31223 ft | 460 kts | 76° |
| 2026-05-05 19:02 | 52.26461 | 3.28728 | 31481 ft | 461 kts | 76° |
| 2026-05-05 19:02 | 52.27382 | 3.33746 | 31729 ft | 463 kts | 76° |
| 2026-05-05 19:02 | 52.28304 | 3.38786 | 32047 ft | 463 kts | 76° |
| 2026-05-05 19:02 | 52.29223 | 3.43820 | 32423 ft | 462 kts | 77° |
| 2026-05-05 19:03 | 52.30140 | 3.48857 | 32783 ft | 460 kts | 77° |
| 2026-05-05 19:03 | 52.31049 | 3.53869 | 33139 ft | 459 kts | 77° |
| 2026-05-05 19:03 | 52.31956 | 3.58876 | 33485 ft | 458 kts | 77° |
| 2026-05-05 19:03 | 52.32858 | 3.63874 | 33802 ft | 458 kts | 77° |
| 2026-05-05 19:04 | 52.33746 | 3.68803 | 34088 ft | 457 kts | 77° |
| 2026-05-05 19:04 | 52.34642 | 3.73793 | 34340 ft | 457 kts | 77° |
| 2026-05-05 19:04 | 52.35536 | 3.78784 | 34563 ft | 457 kts | 77° |
| 2026-05-05 19:04 | 52.36401 | 3.83789 | 34785 ft | 456 kts | 81° |
| 2026-05-05 19:05 | 52.36678 | 3.88885 | 34882 ft | 447 kts | 97° |
| 2026-05-05 19:05 | 52.36500 | 3.93953 | 34918 ft | 449 kts | 94° |
| 2026-05-05 19:05 | 52.36351 | 4.04188 | 34927 ft | 449 kts | 95° |
| 2026-05-05 19:06 | 52.36126 | 4.14322 | 34917 ft | 448 kts | 96° |
| 2026-05-05 19:06 | 52.35878 | 4.24530 | 34918 ft | 448 kts | 96° |
| 2026-05-05 19:07 | 52.35621 | 4.34743 | 34913 ft | 449 kts | 96° |
| 2026-05-05 19:07 | 52.35356 | 4.44892 | 34914 ft | 449 kts | 96° |
| 2026-05-05 19:08 | 52.35082 | 4.55106 | 34911 ft | 449 kts | 96° |
| 2026-05-05 19:08 | 52.34798 | 4.65291 | 34913 ft | 449 kts | 96° |
| 2026-05-05 19:09 | 52.34505 | 4.75513 | 34909 ft | 449 kts | 96° |
| 2026-05-05 19:09 | 52.34206 | 4.85634 | 34910 ft | 448 kts | 96° |
| 2026-05-05 19:10 | 52.33895 | 4.95842 | 34908 ft | 448 kts | 97° |
| 2026-05-05 19:10 | 52.33577 | 5.06037 | 34904 ft | 449 kts | 97° |
| 2026-05-05 19:11 | 52.33812 | 5.16275 | 34903 ft | 452 kts | 90° |
| 2026-05-05 19:11 | 52.34125 | 5.26539 | 34906 ft | 452 kts | 91° |
| 2026-05-05 19:12 | 52.34402 | 5.36753 | 34906 ft | 452 kts | 91° |
| 2026-05-05 19:12 | 52.34671 | 5.47040 | 34909 ft | 453 kts | 92° |
| 2026-05-05 19:13 | 52.34930 | 5.57332 | 34910 ft | 453 kts | 92° |
| 2026-05-05 19:13 | 52.35181 | 5.67632 | 34906 ft | 453 kts | 92° |
| 2026-05-05 19:14 | 52.35422 | 5.77940 | 34907 ft | 453 kts | 92° |
| 2026-05-05 19:14 | 52.35655 | 5.88237 | 34902 ft | 453 kts | 92° |
| 2026-05-05 19:15 | 52.35879 | 5.98562 | 34893 ft | 453 kts | 92° |
| 2026-05-05 19:15 | 52.36092 | 6.08802 | 34889 ft | 453 kts | 92° |
| 2026-05-05 19:16 | 52.36298 | 6.19120 | 34887 ft | 453 kts | 92° |
| 2026-05-05 19:16 | 52.36495 | 6.29433 | 34887 ft | 453 kts | 92° |
| 2026-05-05 19:17 | 52.36683 | 6.39759 | 34882 ft | 453 kts | 92° |
| 2026-05-05 19:17 | 52.36861 | 6.49994 | 34879 ft | 453 kts | 93° |
| 2026-05-05 19:18 | 52.37032 | 6.60369 | 34881 ft | 457 kts | 93° |
| 2026-05-05 19:18 | 52.37194 | 6.70786 | 34880 ft | 457 kts | 93° |
| 2026-05-05 19:19 | 52.37347 | 6.81190 | 34874 ft | 457 kts | 93° |
| 2026-05-05 19:19 | 52.37492 | 6.91600 | 34872 ft | 457 kts | 93° |
| 2026-05-05 19:20 | 52.37625 | 7.01930 | 34873 ft | 457 kts | 93° |
| 2026-05-05 19:20 | 52.37751 | 7.12335 | 34869 ft | 457 kts | 93° |
| 2026-05-05 19:21 | 52.37868 | 7.22748 | 34865 ft | 458 kts | 94° |
| 2026-05-05 19:21 | 52.37976 | 7.33171 | 34862 ft | 458 kts | 94° |
| 2026-05-05 19:22 | 52.38074 | 7.43601 | 34858 ft | 458 kts | 94° |
| 2026-05-05 19:22 | 52.38157 | 7.53269 | 34857 ft | 458 kts | 94° |
| 2026-05-05 19:23 | 52.38239 | 7.63714 | 34856 ft | 458 kts | 94° |
| 2026-05-05 19:23 | 52.38310 | 7.74088 | 34857 ft | 459 kts | 94° |
| 2026-05-05 19:24 | 52.38372 | 7.84529 | 34856 ft | 459 kts | 94° |
| 2026-05-05 19:24 | 52.38426 | 7.94999 | 34866 ft | 459 kts | 94° |
| 2026-05-05 19:25 | 52.38470 | 8.05450 | 34862 ft | 459 kts | 94° |
| 2026-05-05 19:25 | 52.38505 | 8.15909 | 34870 ft | 459 kts | 94° |
| 2026-05-05 19:26 | 52.38531 | 8.26363 | 34856 ft | 459 kts | 94° |
| 2026-05-05 19:26 | 52.38548 | 8.36829 | 34867 ft | 460 kts | 94° |
| 2026-05-05 19:27 | 52.38555 | 8.47308 | 34855 ft | 460 kts | 94° |
| 2026-05-05 19:27 | 52.38553 | 8.57711 | 34858 ft | 460 kts | 94° |
| 2026-05-05 19:28 | 52.38542 | 8.68196 | 34859 ft | 461 kts | 94° |
| 2026-05-05 19:28 | 52.38521 | 8.78691 | 34854 ft | 461 kts | 95° |
| 2026-05-05 19:29 | 52.38492 | 8.89206 | 34851 ft | 461 kts | 95° |
| 2026-05-05 19:29 | 52.38453 | 8.99655 | 34854 ft | 462 kts | 95° |
| 2026-05-05 19:30 | 52.38404 | 9.10177 | 34852 ft | 462 kts | 95° |
| 2026-05-05 19:30 | 52.38347 | 9.20691 | 34853 ft | 462 kts | 95° |
| 2026-05-05 19:31 | 52.38291 | 9.29448 | 34852 ft | 462 kts | 95° |
| 2026-05-05 19:31 | 52.38217 | 9.39970 | 34860 ft | 462 kts | 95° |
| 2026-05-05 19:32 | 52.38132 | 9.50509 | 34855 ft | 462 kts | 95° |
| 2026-05-05 19:32 | 52.38039 | 9.60968 | 34856 ft | 463 kts | 95° |
| 2026-05-05 19:33 | 52.37936 | 9.71509 | 34855 ft | 463 kts | 95° |
| 2026-05-05 19:33 | 52.37824 | 9.82057 | 34855 ft | 463 kts | 95° |
| 2026-05-05 19:34 | 52.37702 | 9.92590 | 34851 ft | 463 kts | 95° |
| 2026-05-05 19:35 | 52.37502 | 10.08365 | 34847 ft | 464 kts | 95° |
| 2026-05-05 19:35 | 52.37356 | 10.18934 | 34847 ft | 464 kts | 95° |
| 2026-05-05 19:36 | 52.37203 | 10.29489 | 34852 ft | 464 kts | 96° |
| 2026-05-05 19:36 | 52.37043 | 10.40001 | 34853 ft | 465 kts | 96° |
| 2026-05-05 19:37 | 52.36874 | 10.50572 | 34857 ft | 465 kts | 96° |
| 2026-05-05 19:37 | 52.36695 | 10.61151 | 34851 ft | 465 kts | 96° |
| 2026-05-05 19:38 | 52.36507 | 10.71749 | 34855 ft | 466 kts | 96° |
| 2026-05-05 19:38 | 52.36560 | 10.82369 | 34844 ft | 471 kts | 84° |
| 2026-05-05 19:39 | 52.37528 | 10.93006 | 34849 ft | 472 kts | 85° |
| 2026-05-05 19:39 | 52.38444 | 11.03678 | 34851 ft | 473 kts | 85° |
| 2026-05-05 19:40 | 52.39358 | 11.14362 | 34855 ft | 474 kts | 85° |
| 2026-05-05 19:40 | 52.40258 | 11.24999 | 34857 ft | 475 kts | 85° |
| 2026-05-05 19:41 | 52.41156 | 11.35730 | 34849 ft | 475 kts | 85° |
| 2026-05-05 19:41 | 52.42044 | 11.46468 | 34847 ft | 476 kts | 85° |
| 2026-05-05 19:42 | 52.42924 | 11.57225 | 34842 ft | 476 kts | 85° |
| 2026-05-05 19:42 | 52.43795 | 11.67988 | 34848 ft | 477 kts | 86° |
| 2026-05-05 19:43 | 52.44652 | 11.78712 | 34842 ft | 477 kts | 86° |
| 2026-05-05 19:43 | 52.45510 | 11.89576 | 34844 ft | 478 kts | 86° |
| 2026-05-05 19:44 | 52.46350 | 12.00333 | 34842 ft | 478 kts | 86° |
| 2026-05-05 19:44 | 52.47185 | 12.11171 | 34839 ft | 479 kts | 86° |
| 2026-05-05 19:45 | 52.48012 | 12.22021 | 34848 ft | 479 kts | 86° |
| 2026-05-05 19:45 | 52.48830 | 12.32893 | 34845 ft | 480 kts | 86° |
| 2026-05-05 19:46 | 52.49634 | 12.43722 | 34839 ft | 481 kts | 86° |
| 2026-05-05 19:46 | 52.50434 | 12.54628 | 34837 ft | 481 kts | 86° |
| 2026-05-05 19:47 | 52.51224 | 12.65544 | 34836 ft | 482 kts | 86° |
| 2026-05-05 19:47 | 52.52006 | 12.76491 | 34837 ft | 483 kts | 86° |
| 2026-05-05 19:48 | 52.52779 | 12.87445 | 34831 ft | 483 kts | 86° |
| 2026-05-05 19:48 | 52.53541 | 12.98410 | 34831 ft | 483 kts | 86° |
| 2026-05-05 19:49 | 52.54295 | 13.09389 | 34827 ft | 484 kts | 86° |
| 2026-05-05 19:49 | 52.55033 | 13.20301 | 34829 ft | 484 kts | 86° |
| 2026-05-05 19:50 | 52.55768 | 13.31321 | 34828 ft | 484 kts | 86° |
| 2026-05-05 19:50 | 52.56492 | 13.42330 | 34826 ft | 485 kts | 86° |
| 2026-05-05 19:51 | 52.57207 | 13.53357 | 34826 ft | 485 kts | 86° |
| 2026-05-05 19:51 | 52.57906 | 13.64318 | 34824 ft | 485 kts | 86° |
| 2026-05-05 19:52 | 52.58601 | 13.75364 | 34828 ft | 485 kts | 86° |
| 2026-05-05 19:52 | 52.59285 | 13.86399 | 34825 ft | 485 kts | 86° |
| 2026-05-05 19:53 | 52.59960 | 13.97454 | 34827 ft | 486 kts | 86° |
| 2026-05-05 19:53 | 52.60625 | 14.08527 | 34824 ft | 486 kts | 86° |
| 2026-05-05 19:54 | 52.61281 | 14.19604 | 34825 ft | 486 kts | 86° |
| 2026-05-05 19:54 | 52.61929 | 14.30679 | 34824 ft | 486 kts | 86° |
| 2026-05-05 19:55 | 52.62568 | 14.41765 | 34824 ft | 486 kts | 86° |
| 2026-05-05 19:55 | 52.63236 | 14.52779 | 34820 ft | 487 kts | 81° |
| 2026-05-05 19:56 | 52.64803 | 14.63619 | 34691 ft | 483 kts | 77° |
| 2026-05-05 19:56 | 52.66109 | 14.72604 | 33409 ft | 488 kts | 77° |
| 2026-05-05 19:56 | 52.66899 | 14.78030 | 32744 ft | 483 kts | 77° |
| 2026-05-05 19:57 | 52.68419 | 14.88518 | 31987 ft | 458 kts | 78° |
| 2026-05-05 19:57 | 52.69305 | 14.94662 | 31372 ft | 448 kts | 78° |
| 2026-05-05 19:57 | 52.70019 | 14.99632 | 30892 ft | 440 kts | 78° |
| 2026-05-05 19:58 | 52.70715 | 15.04491 | 30429 ft | 433 kts | 78° |
| 2026-05-05 19:58 | 52.71390 | 15.09221 | 29983 ft | 426 kts | 78° |
| 2026-05-05 19:58 | 52.72063 | 15.13952 | 29475 ft | 419 kts | 78° |
| 2026-05-05 19:58 | 52.72720 | 15.18579 | 29013 ft | 411 kts | 78° |
| 2026-05-05 19:59 | 52.73367 | 15.23156 | 28592 ft | 412 kts | 78° |
| 2026-05-05 19:59 | 52.74022 | 15.27797 | 28135 ft | 417 kts | 78° |
| 2026-05-05 19:59 | 52.74681 | 15.32486 | 27692 ft | 419 kts | 78° |
| 2026-05-05 19:59 | 52.75338 | 15.37173 | 27268 ft | 418 kts | 78° |
| 2026-05-05 20:00 | 52.75990 | 15.41840 | 26757 ft | 416 kts | 78° |
| 2026-05-05 20:00 | 52.76637 | 15.46484 | 26129 ft | 413 kts | 78° |
| 2026-05-05 20:00 | 52.77274 | 15.51077 | 25701 ft | 406 kts | 78° |
| 2026-05-05 20:00 | 52.77896 | 15.55572 | 25323 ft | 398 kts | 78° |
| 2026-05-05 20:01 | 52.78506 | 15.59989 | 24947 ft | 390 kts | 78° |
| 2026-05-05 20:01 | 52.79093 | 15.64259 | 24584 ft | 383 kts | 78° |
| 2026-05-05 20:01 | 52.79692 | 15.68621 | 24209 ft | 389 kts | 78° |
| 2026-05-05 20:01 | 52.80291 | 15.72999 | 23831 ft | 393 kts | 78° |
| 2026-05-05 20:02 | 52.80886 | 15.77352 | 23462 ft | 394 kts | 78° |
| 2026-05-05 20:02 | 52.81489 | 15.81771 | 23034 ft | 392 kts | 78° |
| 2026-05-05 20:02 | 52.82340 | 15.86034 | 22543 ft | 389 kts | 65° |
| 2026-05-05 20:02 | 52.83427 | 15.90054 | 22220 ft | 378 kts | 68° |
| 2026-05-05 20:03 | 52.84432 | 15.94014 | 21891 ft | 369 kts | 68° |
| 2026-05-05 20:03 | 52.85417 | 15.97893 | 21527 ft | 365 kts | 68° |
| 2026-05-05 20:03 | 52.86411 | 16.01812 | 21163 ft | 371 kts | 68° |
| 2026-05-05 20:03 | 52.87415 | 16.05777 | 20796 ft | 375 kts | 68° |
| 2026-05-05 20:04 | 52.88419 | 16.09747 | 20436 ft | 374 kts | 68° |
| 2026-05-05 20:04 | 52.89418 | 16.13706 | 20074 ft | 371 kts | 68° |
| 2026-05-05 20:04 | 52.90410 | 16.17642 | 19713 ft | 369 kts | 68° |
| 2026-05-05 20:04 | 52.91392 | 16.21550 | 19352 ft | 366 kts | 68° |
| 2026-05-05 20:05 | 52.92368 | 16.25439 | 18990 ft | 364 kts | 68° |
| 2026-05-05 20:05 | 52.93334 | 16.29292 | 18632 ft | 361 kts | 68° |
| 2026-05-05 20:05 | 52.94280 | 16.33073 | 18287 ft | 358 kts | 68° |
| 2026-05-05 20:05 | 52.95229 | 16.36875 | 17898 ft | 356 kts | 68° |
| 2026-05-05 20:06 | 52.96171 | 16.40652 | 17519 ft | 354 kts | 68° |
| 2026-05-05 20:06 | 52.97106 | 16.44412 | 17157 ft | 352 kts | 68° |
| 2026-05-05 20:06 | 52.98037 | 16.48156 | 16807 ft | 350 kts | 68° |
| 2026-05-05 20:06 | 52.98963 | 16.51889 | 16464 ft | 349 kts | 68° |
| 2026-05-05 20:07 | 52.99882 | 16.55600 | 16115 ft | 347 kts | 68° |
| 2026-05-05 20:07 | 53.00797 | 16.59301 | 15765 ft | 345 kts | 68° |
| 2026-05-05 20:07 | 53.01705 | 16.62980 | 15439 ft | 343 kts | 68° |
| 2026-05-05 20:07 | 53.02609 | 16.66649 | 15147 ft | 342 kts | 68° |
| 2026-05-05 20:08 | 53.03508 | 16.70307 | 14818 ft | 341 kts | 69° |
| 2026-05-05 20:08 | 53.04402 | 16.73947 | 14439 ft | 339 kts | 69° |
| 2026-05-05 20:08 | 53.05287 | 16.77556 | 13923 ft | 336 kts | 69° |
| 2026-05-05 20:08 | 53.06164 | 16.81139 | 13397 ft | 333 kts | 69° |
| 2026-05-05 20:09 | 53.07033 | 16.84697 | 12839 ft | 331 kts | 69° |
| 2026-05-05 20:09 | 53.07884 | 16.88183 | 12292 ft | 328 kts | 69° |
| 2026-05-05 20:09 | 53.08738 | 16.91689 | 11748 ft | 325 kts | 69° |
| 2026-05-05 20:09 | 53.09582 | 16.95154 | 11326 ft | 319 kts | 69° |
| 2026-05-05 20:10 | 53.10387 | 16.98466 | 11296 ft | 298 kts | 69° |
| 2026-05-05 20:10 | 53.11177 | 17.01736 | 11025 ft | 307 kts | 70° |
| 2026-05-05 20:10 | 53.11578 | 17.05167 | 10619 ft | 305 kts | 94° |
| 2026-05-05 20:10 | 53.11481 | 17.08711 | 10427 ft | 307 kts | 93° |
| 2026-05-05 20:11 | 53.11452 | 17.12233 | 10073 ft | 301 kts | 93° |
| 2026-05-05 20:11 | 53.11413 | 17.15674 | 9719 ft | 293 kts | 93° |
| 2026-05-05 20:11 | 53.11367 | 17.19033 | 9324 ft | 287 kts | 93° |
| 2026-05-05 20:11 | 53.11318 | 17.22315 | 8956 ft | 280 kts | 93° |
| 2026-05-05 20:12 | 53.11281 | 17.25519 | 8603 ft | 274 kts | 89° |
| 2026-05-05 20:12 | 53.11696 | 17.28530 | 8226 ft | 269 kts | 66° |
| 2026-05-05 20:12 | 53.12422 | 17.31331 | 8010 ft | 256 kts | 69° |
| 2026-05-05 20:12 | 53.13063 | 17.34027 | 7798 ft | 245 kts | 69° |
| 2026-05-05 20:13 | 53.13565 | 17.36645 | 7533 ft | 230 kts | 87° |
| 2026-05-05 20:13 | 53.13351 | 17.39170 | 7284 ft | 214 kts | 109° |
| 2026-05-05 20:13 | 53.12956 | 17.41489 | 7024 ft | 204 kts | 108° |
| 2026-05-05 20:13 | 53.12569 | 17.43736 | 6636 ft | 201 kts | 109° |
| 2026-05-05 20:14 | 53.12175 | 17.45960 | 6257 ft | 199 kts | 109° |
| 2026-05-05 20:14 | 53.11795 | 17.48076 | 6014 ft | 183 kts | 109° |
| 2026-05-05 20:14 | 53.11427 | 17.50093 | 5963 ft | 183 kts | 110° |
| 2026-05-05 20:14 | 53.11054 | 17.52116 | 5963 ft | 183 kts | 110° |
| 2026-05-05 20:15 | 53.10708 | 17.54165 | 5957 ft | 183 kts | 103° |
| 2026-05-05 20:15 | 53.10526 | 17.56248 | 5944 ft | 179 kts | 101° |
| 2026-05-05 20:15 | 53.10355 | 17.58284 | 5933 ft | 177 kts | 101° |
| 2026-05-05 20:15 | 53.10177 | 17.60317 | 5965 ft | 177 kts | 101° |
| 2026-05-05 20:16 | 53.09992 | 17.62351 | 5889 ft | 180 kts | 101° |
| 2026-05-05 20:16 | 53.09805 | 17.64368 | 5693 ft | 172 kts | 102° |
| 2026-05-05 20:16 | 53.09618 | 17.66303 | 5424 ft | 172 kts | 102° |
| 2026-05-05 20:16 | 53.09422 | 17.68268 | 5373 ft | 168 kts | 102° |
| 2026-05-05 20:17 | 53.09224 | 17.70192 | 5086 ft | 169 kts | 102° |
| 2026-05-05 20:17 | 53.09022 | 17.72134 | 4754 ft | 172 kts | 101° |
| 2026-05-05 20:17 | 53.08824 | 17.74098 | 4338 ft | 173 kts | 101° |
| 2026-05-05 20:17 | 53.08626 | 17.76051 | 3864 ft | 170 kts | 99° |
| 2026-05-05 20:18 | 53.08424 | 17.77981 | 3333 ft | 168 kts | 99° |
| 2026-05-05 20:18 | 53.08267 | 17.79877 | 2838 ft | 162 kts | 90° |
| 2026-05-05 20:18 | 53.08298 | 17.81725 | 2364 ft | 156 kts | 81° |
| 2026-05-05 20:18 | 53.08435 | 17.83445 | 1962 ft | 144 kts | 78° |
| 2026-05-05 20:19 | 53.08550 | 17.84505 | 1723 ft | 138 kts | 78° |
| 2026-05-05 20:19 | 53.08721 | 17.86580 | 1310 ft | 139 kts | 81° |
| 2026-05-05 20:19 | 53.08860 | 17.88149 | 1166 ft | 138 kts | 78° |
| 2026-05-05 20:19 | 53.09007 | 17.89741 | 1055 ft | 140 kts | 81° |
| 2026-05-05 20:20 | 53.09092 | 17.90811 | 905 ft | 141 kts | 81° |
| 2026-05-05 20:20 | 53.09274 | 17.92940 | 605 ft | 138 kts | 79° |
| 2026-05-05 20:20 | 53.09410 | 17.94515 | 425 ft | 138 kts | 79° |
| 2026-05-05 20:20 | 53.09473 | 17.95329 | 332 ft | 136 kts | 82° |
| 2026-05-05 20:21 | 53.09558 | 17.96361 | 237 ft | 129 kts | 81° |
| 2026-05-05 20:21 | 53.09657 | 17.97500 | 226 ft | 64 kts | 82° |
| 2026-05-05 20:21 | 53.09711 | 17.98130 | 226 ft | 37 kts | 82° |
| 2026-05-05 20:21 | 53.09746 | 17.98558 | 225 ft | 37 kts | 82° |
| 2026-05-05 20:22 | 53.09783 | 17.98983 | 225 ft | 37 kts | 82° |
| 2026-05-05 20:22 | 53.09801 | 17.99217 | 226 ft | 29 kts | 82° |
| 2026-05-05 20:22 | 53.09809 | 17.99579 | 231 ft | 21 kts | 124° |
| 2026-05-05 20:22 | 53.09672 | 17.99647 | 226 ft | 21 kts | 172° |
| 2026-05-05 20:23 | 53.09581 | 17.99668 | 228 ft | 9 kts | 172° |
| 2026-05-05 20:23 | 53.09519 | 17.99682 | 226 ft | 8 kts | 172° |
| 2026-05-05 20:23 | 53.09464 | 17.99694 | 226 ft | 8 kts | 172° |
| 2026-05-05 20:23 | 53.09458 | 17.99695 | 226 ft | 0 kts | 172° |